createdAt,value
2023-01-19T00:01:14.613Z,-2.00
2023-01-19T00:03:43.267Z,-2.01
2023-01-19T00:06:12.060Z,-2.04
2023-01-19T00:08:40.538Z,-2.02
2023-01-19T00:11:08.861Z,-2.07
2023-01-19T00:13:38.118Z,-2.06
2023-01-19T00:16:08.745Z,-2.11
2023-01-19T00:18:36.935Z,-2.10
2023-01-19T00:21:05.548Z,-2.11
2023-01-19T00:23:33.749Z,-2.12
2023-01-19T00:26:01.946Z,-2.15
2023-01-19T00:28:30.164Z,-2.16
2023-01-19T00:30:58.433Z,-2.16
2023-01-19T00:33:51.642Z,-2.17
2023-01-19T00:36:20.650Z,-2.22
2023-01-19T00:38:49.284Z,-2.22
2023-01-19T00:41:17.892Z,-2.24
2023-01-19T00:43:45.554Z,-2.24
2023-01-19T00:46:15.612Z,-2.27
2023-01-19T00:48:49.975Z,-2.31
2023-01-19T00:51:18.388Z,-2.29
2023-01-19T00:57:36.830Z,-2.37
2023-01-19T01:00:07.243Z,-2.36
2023-01-19T01:02:36.794Z,-2.35
2023-01-19T01:05:08.579Z,-2.36
2023-01-19T01:07:40.796Z,-2.38
2023-01-19T01:10:11.744Z,-2.42
2023-01-19T01:12:41.305Z,-2.42
2023-01-19T01:15:23.948Z,-2.45
2023-01-19T01:17:53.096Z,-2.41
2023-01-19T01:20:27.145Z,-2.49
2023-01-19T01:22:57.804Z,-2.49
2023-01-19T01:25:28.589Z,-2.48
2023-01-19T01:27:56.866Z,-2.52
2023-01-19T01:30:25.433Z,-2.51
2023-01-19T01:32:53.683Z,-2.55
2023-01-19T01:35:23.373Z,-2.52
2023-01-19T01:37:51.701Z,-2.56
2023-01-19T01:40:20.815Z,-2.59
2023-01-19T01:42:49.021Z,-2.60
2023-01-19T01:45:33.872Z,-2.63
2023-01-19T01:48:09.732Z,-2.66
2023-01-19T01:51:06.803Z,-2.62
2023-01-19T01:53:37.571Z,-2.65
2023-01-19T01:56:11.328Z,-2.63
2023-01-19T01:58:41.171Z,-2.62
2023-01-19T02:01:29.145Z,-2.61
2023-01-19T02:03:58.747Z,-2.62
2023-01-19T02:06:28.642Z,-2.64
2023-01-19T02:09:19.740Z,-2.65
2023-01-19T02:12:06.225Z,-2.69
2023-01-19T02:14:37.411Z,-2.64
2023-01-19T02:17:05.889Z,-2.71
2023-01-19T02:19:40.375Z,-2.74
2023-01-19T02:22:17.834Z,-2.73
2023-01-19T02:24:49.955Z,-2.72
2023-01-19T02:27:18.993Z,-2.75
2023-01-19T02:29:47.455Z,-2.77
2023-01-19T02:32:15.908Z,-2.76
2023-01-19T02:34:44.284Z,-2.75
2023-01-19T02:37:15.768Z,-2.75
2023-01-19T02:39:51.277Z,-2.72
2023-01-19T02:42:23.851Z,-2.72
2023-01-19T02:44:55.849Z,-2.76
2023-01-19T02:47:24.527Z,-2.78
2023-01-19T02:49:57.550Z,-2.77
2023-01-19T02:52:26.770Z,-2.77
2023-01-19T02:55:05.962Z,-2.77
2023-01-19T02:57:49.910Z,-2.76
2023-01-19T03:00:34.158Z,-2.79
2023-01-19T03:03:23.837Z,-2.82
2023-01-19T03:05:59.109Z,-2.82
2023-01-19T03:08:44.923Z,-2.83
2023-01-19T03:11:16.076Z,-2.82
2023-01-19T03:13:50.062Z,-2.85
2023-01-19T03:16:23.030Z,-2.87
2023-01-19T03:18:55.977Z,-2.83
2023-01-19T03:21:31.435Z,-2.86
2023-01-19T03:24:04.300Z,-2.87
2023-01-19T03:26:40.168Z,-2.87
2023-01-19T03:29:11.646Z,-2.90
2023-01-19T03:31:41.531Z,-2.89
2023-01-19T03:34:13.353Z,-2.90
2023-01-19T03:36:46.035Z,-2.92
2023-01-19T03:39:20.347Z,-2.95
2023-01-19T03:41:53.390Z,-2.91
2023-01-19T03:44:21.751Z,-2.93
2023-01-19T03:46:50.430Z,-2.95
2023-01-19T03:49:19.512Z,-3.01
2023-01-19T03:51:48.262Z,-2.98
2023-01-19T03:54:16.453Z,-2.97
2023-01-19T03:56:44.817Z,-2.99
2023-01-19T03:59:17.532Z,-3.00
2023-01-19T04:01:46.048Z,-3.03
2023-01-19T04:04:15.552Z,-3.03
2023-01-19T04:06:44.503Z,-3.05
2023-01-19T04:09:12.851Z,-3.06
2023-01-19T04:11:41.197Z,-3.06
2023-01-19T04:14:09.417Z,-3.05
2023-01-19T04:16:39.081Z,-3.07
2023-01-19T04:19:07.368Z,-3.10
2023-01-19T04:21:35.896Z,-3.16
2023-01-19T04:24:04.401Z,-3.18
2023-01-19T04:26:32.827Z,-3.16
2023-01-19T04:29:01.133Z,-3.18
2023-01-19T04:31:29.930Z,-3.21
2023-01-19T04:33:59.973Z,-3.19
2023-01-19T04:36:28.498Z,-3.20
2023-01-19T04:38:56.720Z,-3.23
2023-01-19T04:41:25.082Z,-3.27
2023-01-19T04:43:53.401Z,-3.25
2023-01-19T04:46:21.560Z,-3.25
2023-01-19T04:48:49.844Z,-3.27
2023-01-19T04:51:19.462Z,-3.27
2023-01-19T04:53:47.794Z,-3.27
2023-01-19T04:56:16.182Z,-3.28
2023-01-19T04:58:44.446Z,-3.28
2023-01-19T05:01:12.850Z,-3.24
2023-01-19T05:03:41.328Z,-3.26
2023-01-19T05:06:09.811Z,-3.28
2023-01-19T05:08:39.569Z,-3.29
2023-01-19T05:11:08.120Z,-3.25
2023-01-19T05:13:36.502Z,-3.27
2023-01-19T05:16:06.230Z,-3.28
2023-01-19T05:18:37.072Z,-3.23
2023-01-19T05:21:06.312Z,-3.22
2023-01-19T05:23:34.956Z,-3.18
2023-01-19T05:26:06.816Z,-3.20
2023-01-19T05:28:35.915Z,-3.17
2023-01-19T05:31:04.559Z,-3.14
2023-01-19T05:33:33.033Z,-3.20
2023-01-19T05:36:01.513Z,-3.20
2023-01-19T05:38:35.401Z,-3.18
2023-01-19T05:41:05.820Z,-3.17
2023-01-19T05:43:34.220Z,-3.17
2023-01-19T05:46:03.899Z,-3.15
2023-01-19T05:48:32.382Z,-3.14
2023-01-19T05:51:01.587Z,-3.14
2023-01-19T05:53:30.374Z,-3.15
2023-01-19T05:56:02.253Z,-3.13
2023-01-19T05:58:34.329Z,-3.12
2023-01-19T06:01:05.809Z,-3.09
2023-01-19T06:03:35.464Z,-3.07
2023-01-19T06:06:04.976Z,-3.06
2023-01-19T06:08:33.615Z,-3.09
2023-01-19T06:11:02.004Z,-3.09
2023-01-19T06:13:31.750Z,-3.09
2023-01-19T06:16:00.596Z,-3.11
2023-01-19T06:18:29.563Z,-3.12
2023-01-19T06:20:59.595Z,-3.09
2023-01-19T06:23:28.387Z,-3.05
2023-01-19T06:25:56.895Z,-2.99
2023-01-19T06:28:25.711Z,-3.03
2023-01-19T06:30:57.463Z,-3.05
2023-01-19T06:33:27.840Z,-3.05
2023-01-19T06:35:57.189Z,-3.03
2023-01-19T06:38:25.512Z,-3.03
2023-01-19T06:40:55.555Z,-3.02
2023-01-19T06:43:24.145Z,-3.02
2023-01-19T06:45:53.478Z,-3.04
2023-01-19T06:48:23.802Z,-3.05
2023-01-19T06:50:52.436Z,-3.03
2023-01-19T06:53:22.288Z,-3.03
2023-01-19T06:55:50.774Z,-3.03
2023-01-19T06:58:19.499Z,-3.02
2023-01-19T07:00:48.912Z,-3.04
2023-01-19T07:03:21.743Z,-3.01
2023-01-19T07:05:54.948Z,-3.00
2023-01-19T07:08:23.560Z,-3.03
2023-01-19T07:11:26.030Z,-3.01
2023-01-19T07:13:41.621Z,-3.01
2023-01-19T07:16:12.442Z,-3.00
2023-01-19T07:18:41.958Z,-3.03
2023-01-19T07:21:11.553Z,-3.00
2023-01-19T07:23:39.884Z,-3.02
2023-01-19T07:26:08.174Z,-3.00
2023-01-19T07:28:37.046Z,-3.00
2023-01-19T07:31:05.759Z,-3.01
2023-01-19T07:33:34.267Z,-2.97
2023-01-19T07:36:02.671Z,-2.88
2023-01-19T07:38:32.600Z,-2.89
2023-01-19T07:41:05.515Z,-2.88
2023-01-19T07:43:34.438Z,-2.90
2023-01-19T07:46:07.024Z,-2.87
2023-01-19T07:48:35.573Z,-2.81
2023-01-19T07:51:10.424Z,-2.84
2023-01-19T07:53:42.375Z,-2.85
2023-01-19T07:56:11.296Z,-2.83
2023-01-19T07:58:39.832Z,-2.82
2023-01-19T08:01:09.495Z,-2.78
2023-01-19T08:03:38.515Z,-2.82
2023-01-19T08:06:08.126Z,-2.79
2023-01-19T08:08:36.526Z,-2.76
2023-01-19T08:11:06.637Z,-2.75
2023-01-19T08:13:35.053Z,-2.72
2023-01-19T08:16:03.457Z,-2.69
2023-01-19T08:18:31.767Z,-2.66
2023-01-19T08:21:00.455Z,-2.64
2023-01-19T08:23:29.373Z,-2.59
2023-01-19T08:25:57.636Z,-2.50
2023-01-19T08:28:27.486Z,-2.44
2023-01-19T08:30:56.091Z,-2.45
2023-01-19T08:33:25.600Z,-2.42
2023-01-19T08:35:55.260Z,-2.37
2023-01-19T08:38:24.724Z,-2.30
2023-01-19T08:40:53.349Z,-2.36
2023-01-19T08:43:21.658Z,-2.35
2023-01-19T08:45:53.913Z,-2.37
2023-01-19T08:48:25.090Z,-2.35
2023-01-19T08:50:54.541Z,-2.38
2023-01-19T08:53:24.131Z,-2.37
2023-01-19T08:55:55.844Z,-2.32
2023-01-19T08:58:24.969Z,-2.35
2023-01-19T09:00:54.954Z,-2.28
2023-01-19T09:03:23.840Z,-2.23
2023-01-19T09:05:52.303Z,-2.22
2023-01-19T09:08:22.160Z,-2.19
2023-01-19T09:10:52.785Z,-2.19
2023-01-19T09:13:21.932Z,-2.10
2023-01-19T09:15:51.049Z,-2.07
2023-01-19T09:18:23.147Z,-2.05
2023-01-19T09:20:52.380Z,-1.97
2023-01-19T09:23:22.539Z,-1.89
2023-01-19T09:25:57.751Z,-1.81
2023-01-19T09:28:26.811Z,-1.76
2023-01-19T09:30:55.337Z,-1.75
2023-01-19T09:33:25.753Z,-1.76
2023-01-19T09:35:54.019Z,-1.73
2023-01-19T09:38:23.923Z,-1.68
2023-01-19T09:40:56.070Z,-1.65
2023-01-19T09:43:37.946Z,-1.58
2023-01-19T09:46:13.682Z,-1.50
2023-01-19T09:48:48.587Z,-1.49
2023-01-19T09:51:20.968Z,-1.48
2023-01-19T09:54:07.682Z,-1.44
2023-01-19T09:56:36.202Z,-1.35
2023-01-19T09:59:22.367Z,-1.34
2023-01-19T10:02:19.882Z,-1.27
2023-01-19T10:05:00.339Z,-1.22
2023-01-19T10:07:53.385Z,-1.15
2023-01-19T10:10:25.751Z,-1.11
2023-01-19T10:13:10.572Z,-1.10
2023-01-19T10:15:50.367Z,-1.09
2023-01-19T10:18:25.239Z,-1.02
2023-01-19T10:21:00.185Z,-1.01
2023-01-19T10:23:49.265Z,-0.94
2023-01-19T10:26:22.158Z,-0.85
2023-01-19T10:28:54.804Z,-0.83
2023-01-19T10:31:25.907Z,-0.83
2023-01-19T10:33:55.133Z,-0.85
2023-01-19T10:36:30.852Z,-0.84
2023-01-19T10:38:59.665Z,-0.86
2023-01-19T10:41:42.824Z,-0.84
2023-01-19T10:44:12.417Z,-0.83
2023-01-19T10:46:45.615Z,-0.79
2023-01-19T10:49:28.808Z,-0.76
2023-01-19T10:52:00.301Z,-0.71
2023-01-19T10:54:31.809Z,-0.70
2023-01-19T10:57:03.468Z,-0.71
2023-01-19T10:59:38.403Z,-0.72
2023-01-19T11:02:20.203Z,-0.69
2023-01-19T11:04:52.871Z,-0.65
2023-01-19T11:07:25.267Z,-0.67
2023-01-19T11:10:21.888Z,-0.67
2023-01-19T11:13:02.368Z,-0.62
2023-01-19T11:15:35.614Z,-0.56
2023-01-19T11:18:06.328Z,-0.50
2023-01-19T11:20:52.344Z,-0.45
2023-01-19T11:23:28.209Z,-0.45
2023-01-19T11:26:01.223Z,-0.39
2023-01-19T11:28:35.594Z,-0.32
2023-01-19T11:31:18.454Z,-0.29
2023-01-19T11:33:53.203Z,-0.18
2023-01-19T11:36:23.891Z,-0.17
2023-01-19T11:38:56.744Z,-0.17
2023-01-19T11:41:30.123Z,-0.14
2023-01-19T11:44:03.232Z,-0.09
2023-01-19T11:46:35.252Z,-0.06
2023-01-19T11:49:06.788Z,-0.04
2023-01-19T11:51:42.905Z,-0.06
2023-01-19T11:54:23.636Z,-0.06
2023-01-19T11:56:53.187Z,-0.04
2023-01-19T11:59:24.847Z,-0.04
2023-01-19T12:01:57.916Z,0.02
2023-01-19T12:04:30.733Z,0.04
2023-01-19T12:07:07.554Z,0.09
2023-01-19T12:09:43.635Z,0.09
2023-01-19T12:12:19.309Z,0.07
2023-01-19T12:14:58.495Z,0.07
2023-01-19T12:17:29.980Z,0.08
2023-01-19T12:20:07.516Z,0.15
2023-01-19T12:22:49.498Z,0.10
2023-01-19T12:25:23.969Z,0.07
2023-01-19T12:27:54.333Z,0.03
2023-01-19T12:30:26.058Z,0.02
2023-01-19T12:33:39.767Z,0.01
2023-01-19T12:36:14.141Z,0.02
2023-01-19T12:38:47.731Z,0.07
2023-01-19T12:41:27.657Z,0.10
2023-01-19T12:44:23.662Z,0.13
2023-01-19T12:46:55.964Z,0.14
2023-01-19T12:49:33.624Z,0.36
2023-01-19T12:52:28.010Z,0.26
2023-01-19T12:55:16.843Z,0.21
2023-01-19T12:57:55.163Z,0.32
2023-01-19T13:00:37.597Z,0.27
2023-01-19T13:03:48.163Z,0.18
2023-01-19T13:06:17.780Z,0.22
2023-01-19T13:09:00.990Z,0.28
2023-01-19T13:11:34.363Z,0.19
2023-01-19T13:14:38.911Z,0.20
2023-01-19T13:17:28.536Z,0.15
2023-01-19T13:20:27.324Z,0.17
2023-01-19T13:23:21.907Z,0.13
2023-01-19T13:26:02.817Z,0.11
2023-01-19T13:28:43.556Z,0.08
2023-01-19T13:31:13.445Z,0.08
2023-01-19T13:33:50.368Z,0.10
2023-01-19T13:36:28.657Z,0.08
2023-01-19T13:39:01.488Z,0.10
2023-01-19T13:41:32.684Z,0.09
2023-01-19T13:44:04.668Z,0.13
2023-01-19T13:46:34.319Z,0.10
2023-01-19T13:49:10.860Z,0.08
2023-01-19T13:51:39.402Z,0.08
2023-01-19T13:54:17.332Z,0.07
2023-01-19T13:56:50.188Z,0.05
2023-01-19T13:59:18.664Z,0.07
2023-01-19T14:01:49.263Z,0.06
2023-01-19T14:04:36.189Z,0.09
2023-01-19T14:07:13.954Z,0.07
2023-01-19T14:09:43.752Z,0.09
2023-01-19T14:12:15.015Z,0.10
2023-01-19T14:14:44.268Z,0.08
2023-01-19T14:17:25.592Z,0.09
2023-01-19T14:19:56.342Z,0.08
2023-01-19T14:22:40.876Z,0.08
2023-01-19T14:25:34.389Z,0.07
2023-01-19T14:28:39.485Z,0.08
2023-01-19T14:31:22.304Z,0.09
2023-01-19T14:33:53.045Z,0.09
2023-01-19T14:36:30.146Z,0.09
2023-01-19T14:39:01.919Z,0.08
2023-01-19T14:41:49.613Z,0.07
2023-01-19T14:44:26.006Z,0.08
2023-01-19T14:46:55.235Z,0.08
2023-01-19T14:49:34.763Z,0.07
2023-01-19T14:52:07.788Z,0.07
2023-01-19T14:54:40.322Z,0.09
2023-01-19T14:57:13.807Z,0.06
2023-01-19T14:59:42.318Z,0.08
2023-01-19T15:02:10.533Z,0.07
2023-01-19T15:04:38.905Z,0.06
2023-01-19T15:07:08.265Z,0.10
2023-01-19T15:09:36.703Z,0.10
2023-01-19T15:12:05.464Z,0.10
2023-01-19T15:14:35.361Z,0.10
2023-01-19T15:17:03.582Z,0.10
2023-01-19T15:19:31.888Z,0.08
2023-01-19T15:22:00.351Z,0.07
2023-01-19T15:24:28.598Z,0.07
2023-01-19T15:27:01.553Z,0.06
2023-01-19T15:29:32.120Z,0.07
2023-01-19T15:32:02.305Z,0.06
2023-01-19T15:34:31.651Z,0.07
2023-01-19T15:37:00.554Z,0.07
2023-01-19T15:39:28.842Z,0.08
2023-01-19T15:41:57.056Z,0.09
2023-01-19T15:44:25.372Z,0.10
2023-01-19T15:46:54.738Z,0.10
2023-01-19T15:49:24.482Z,0.09
2023-01-19T15:51:53.070Z,0.09
2023-01-19T15:54:21.408Z,0.07
2023-01-19T15:56:49.757Z,0.07
2023-01-19T15:59:18.164Z,0.07
2023-01-19T16:01:46.770Z,0.05
2023-01-19T16:04:17.822Z,0.04
2023-01-19T16:06:47.611Z,0.03
2023-01-19T16:09:18.495Z,0.04
2023-01-19T16:11:47.094Z,0.04
2023-01-19T16:14:17.408Z,0.04
2023-01-19T16:16:46.144Z,0.03
2023-01-19T16:19:16.569Z,0.02
2023-01-19T16:21:44.907Z,0.00
2023-01-19T16:24:14.705Z,0.00
2023-01-19T16:26:43.105Z,0.00
2023-01-19T16:29:11.844Z,0.00
2023-01-19T16:31:42.211Z,-0.02
2023-01-19T16:34:11.398Z,-0.03
2023-01-19T16:36:42.647Z,-0.04
2023-01-19T16:39:15.228Z,-0.04
2023-01-19T16:41:45.194Z,-0.06
2023-01-19T16:44:14.898Z,-0.07
2023-01-19T16:46:45.475Z,-0.09
2023-01-19T16:49:16.464Z,-0.12
2023-01-19T16:51:45.060Z,-0.12
2023-01-19T16:54:16.842Z,-0.14
2023-01-19T16:56:45.469Z,-0.14
2023-01-19T16:59:15.979Z,-0.16
2023-01-19T17:01:46.148Z,-0.17
2023-01-19T17:04:15.263Z,-0.17
2023-01-19T17:06:43.851Z,-0.19
2023-01-19T17:09:12.285Z,-0.22
2023-01-19T17:11:42.067Z,-0.21
2023-01-19T17:14:14.301Z,-0.21
2023-01-19T17:16:43.441Z,-0.23
2023-01-19T17:19:16.401Z,-0.23
2023-01-19T17:21:46.976Z,-0.23
2023-01-19T17:24:15.714Z,-0.23
2023-01-19T17:26:48.452Z,-0.22
2023-01-19T17:29:17.634Z,-0.23
2023-01-19T17:31:46.900Z,-0.25
2023-01-19T17:34:15.245Z,-0.26
2023-01-19T17:36:43.612Z,-0.27
2023-01-19T17:39:16.748Z,-0.29
2023-01-19T17:41:47.517Z,-0.29
2023-01-19T17:44:17.208Z,-0.30
2023-01-19T17:46:45.481Z,-0.33
2023-01-19T17:49:13.793Z,-0.33
2023-01-19T17:51:42.085Z,-0.34
2023-01-19T17:54:10.941Z,-0.35
2023-01-19T17:56:41.218Z,-0.35
2023-01-19T17:59:10.923Z,-0.36
2023-01-19T18:01:40.397Z,-0.39
2023-01-19T18:04:10.253Z,-0.40
2023-01-19T18:06:39.284Z,-0.41
2023-01-19T18:09:08.239Z,-0.43
2023-01-19T18:11:37.254Z,-0.43
2023-01-19T18:14:06.639Z,-0.44
2023-01-19T18:16:37.007Z,-0.45
2023-01-19T18:19:05.423Z,-0.47
2023-01-19T18:21:33.761Z,-0.48
2023-01-19T18:24:04.282Z,-0.49
2023-01-19T18:26:35.067Z,-0.51
2023-01-19T18:29:03.966Z,-0.53
2023-01-19T18:31:32.515Z,-0.54
2023-01-19T18:34:02.255Z,-0.53
2023-01-19T18:36:32.131Z,-0.54
2023-01-19T18:39:00.548Z,-0.54
2023-01-19T18:41:29.917Z,-0.55
2023-01-19T18:43:59.585Z,-0.55
2023-01-19T18:46:28.266Z,-0.55
2023-01-19T18:48:56.489Z,-0.57
2023-01-19T18:51:26.452Z,-0.57
2023-01-19T18:53:54.913Z,-0.58
2023-01-19T18:56:23.200Z,-0.59
2023-01-19T18:58:52.234Z,-0.59
2023-01-19T19:01:24.930Z,-0.59
2023-01-19T19:03:53.755Z,-0.59
2023-01-19T19:06:22.810Z,-0.58
2023-01-19T19:08:53.577Z,-0.58
2023-01-19T19:11:24.010Z,-0.59
2023-01-19T19:13:58.254Z,-0.58
2023-01-19T19:16:27.168Z,-0.58
2023-01-19T19:18:55.592Z,-0.57
2023-01-19T19:21:25.247Z,-0.56
2023-01-19T19:23:57.081Z,-0.58
2023-01-19T19:26:27.894Z,-0.56
2023-01-19T19:28:56.354Z,-0.57
2023-01-19T19:31:26.944Z,-0.55
2023-01-19T19:33:56.977Z,-0.54
2023-01-19T19:36:27.136Z,-0.53
2023-01-19T19:38:56.965Z,-0.54
2023-01-19T19:41:27.830Z,-0.55
2023-01-19T19:43:56.790Z,-0.56
2023-01-19T19:46:26.797Z,-0.55
2023-01-19T19:48:55.373Z,-0.56
2023-01-19T19:51:27.075Z,-0.57
2023-01-19T19:53:59.617Z,-0.56
2023-01-19T19:56:31.146Z,-0.58
2023-01-19T19:59:00.963Z,-0.59
2023-01-19T20:01:33.468Z,-0.59
2023-01-19T20:04:07.979Z,-0.58
2023-01-19T20:06:38.728Z,-0.59
2023-01-19T20:09:12.729Z,-0.59
2023-01-19T20:11:42.677Z,-0.61
2023-01-19T20:14:14.140Z,-0.61
2023-01-19T20:16:42.422Z,-0.61
2023-01-19T20:19:11.809Z,-0.62
2023-01-19T20:21:42.831Z,-0.62
2023-01-19T20:24:16.080Z,-0.61
2023-01-19T20:26:48.504Z,-0.61
2023-01-19T20:29:17.064Z,-0.60
2023-01-19T20:31:48.248Z,-0.59
2023-01-19T20:34:19.577Z,-0.59
2023-01-19T20:36:50.149Z,-0.60
2023-01-19T20:39:20.934Z,-0.60
2023-01-19T20:41:51.372Z,-0.59
2023-01-19T20:44:22.494Z,-0.58
2023-01-19T20:46:51.534Z,-0.59
2023-01-19T20:49:20.179Z,-0.60
2023-01-19T20:51:50.069Z,-0.60
2023-01-19T20:54:23.146Z,-0.60
2023-01-19T20:56:51.530Z,-0.60
2023-01-19T20:59:20.428Z,-0.59
2023-01-19T21:01:49.720Z,-0.58
2023-01-19T21:04:18.567Z,-0.58
2023-01-19T21:06:46.855Z,-0.58
2023-01-19T21:09:15.185Z,-0.59
2023-01-19T21:11:44.833Z,-0.59
2023-01-19T21:14:13.160Z,-0.59
2023-01-19T21:16:42.493Z,-0.60
2023-01-19T21:19:11.928Z,-0.61
2023-01-19T21:21:40.501Z,-0.62
2023-01-19T21:24:11.168Z,-0.61
2023-01-19T21:26:41.537Z,-0.62
2023-01-19T21:29:13.977Z,-0.62
2023-01-19T21:31:42.888Z,-0.63
2023-01-19T21:36:39.718Z,-0.61
2023-01-19T21:39:09.021Z,-0.62
2023-01-19T21:41:39.762Z,-0.63
2023-01-19T21:44:08.010Z,-0.63
2023-01-19T21:46:37.756Z,-0.64
2023-01-19T21:49:08.227Z,-0.64
2023-01-19T21:51:38.159Z,-0.66
2023-01-19T21:54:07.744Z,-0.67
2023-01-19T21:56:37.800Z,-0.70
2023-01-19T21:59:06.426Z,-0.71
2023-01-19T22:01:37.190Z,-0.72
2023-01-19T22:04:06.077Z,-0.73
2023-01-19T22:06:34.755Z,-0.76
2023-01-19T22:09:03.216Z,-0.75
2023-01-19T22:11:32.406Z,-0.77
2023-01-19T22:14:01.015Z,-0.76
2023-01-19T22:16:30.561Z,-0.78
2023-01-19T22:19:02.630Z,-0.79
2023-01-19T22:21:34.956Z,-0.80
2023-01-19T22:24:05.662Z,-0.80
2023-01-19T22:26:40.142Z,-0.81
2023-01-19T22:29:11.101Z,-0.82
2023-01-19T22:31:41.436Z,-0.81
2023-01-19T22:34:11.756Z,-0.83
2023-01-19T22:36:40.232Z,-0.83
2023-01-19T22:39:10.918Z,-0.84
2023-01-19T22:41:41.828Z,-0.83
2023-01-19T22:44:14.263Z,-0.85
2023-01-19T22:46:43.175Z,-0.86
2023-01-19T22:49:16.096Z,-0.87
2023-01-19T22:51:45.550Z,-0.86
2023-01-19T22:54:14.459Z,-0.86
2023-01-19T22:56:43.172Z,-0.86
2023-01-19T22:59:11.416Z,-0.86
2023-01-19T23:01:42.029Z,-0.85
2023-01-19T23:04:15.762Z,-0.86
2023-01-19T23:06:46.845Z,-0.86
2023-01-19T23:09:16.249Z,-0.87
2023-01-19T23:11:50.039Z,-0.86
2023-01-19T23:14:22.097Z,-0.86
2023-01-19T23:16:50.545Z,-0.87
2023-01-19T23:19:20.599Z,-0.86
2023-01-19T23:21:52.247Z,-0.86
2023-01-19T23:24:20.514Z,-0.87
2023-01-19T23:26:50.330Z,-0.87
2023-01-19T23:29:19.594Z,-0.87
2023-01-19T23:31:49.864Z,-0.87
2023-01-19T23:34:19.463Z,-0.87
2023-01-19T23:36:47.730Z,-0.86
2023-01-19T23:39:19.844Z,-0.86
2023-01-19T23:41:49.140Z,-0.84
2023-01-19T23:44:18.196Z,-0.85
2023-01-19T23:46:47.057Z,-0.84
2023-01-19T23:49:15.327Z,-0.85
2023-01-19T23:51:45.033Z,-0.85
2023-01-19T23:54:13.377Z,-0.85
2023-01-19T23:56:42.585Z,-0.84
2023-01-19T23:59:12.974Z,-0.84
